createdAt,value
2022-10-18T00:01:24.033Z,23.00
2022-10-18T00:03:56.334Z,23.40
2022-10-18T00:06:28.378Z,19.70
2022-10-18T00:09:00.324Z,20.90
2022-10-18T00:11:33.731Z,18.90
2022-10-18T00:14:05.744Z,17.40
2022-10-18T00:16:38.471Z,19.30
2022-10-18T00:19:12.522Z,19.30
2022-10-18T00:24:22.108Z,15.10
2022-10-18T00:26:54.324Z,19.90
2022-10-18T00:29:26.294Z,21.90
2022-10-18T00:31:58.325Z,17.60
2022-10-18T00:34:30.648Z,14.20
2022-10-18T00:37:02.665Z,17.70
2022-10-18T00:39:35.726Z,18.40
2022-10-18T00:42:07.833Z,24.90
2022-10-18T00:45:08.668Z,17.20
2022-10-18T00:47:41.111Z,13.50
2022-10-18T00:50:13.524Z,20.70
2022-10-18T00:52:48.293Z,16.00
2022-10-18T00:55:20.841Z,15.80
2022-10-18T01:00:30.428Z,16.50
2022-10-18T01:03:02.456Z,16.10
2022-10-18T01:05:37.333Z,15.60
2022-10-18T01:08:29.671Z,16.50
2022-10-18T01:11:18.955Z,13.60
2022-10-18T01:14:08.170Z,14.10
2022-10-18T01:16:46.276Z,14.70
2022-10-18T01:19:42.199Z,16.50
2022-10-18T01:22:22.925Z,15.60
2022-10-18T01:25:08.289Z,12.70
2022-10-18T01:27:50.024Z,14.30
2022-10-18T01:30:44.896Z,13.60
2022-10-18T01:33:25.912Z,15.50
2022-10-18T01:36:02.315Z,13.50
2022-10-18T01:38:36.349Z,14.20
2022-10-18T01:41:14.804Z,13.90
2022-10-18T01:43:51.172Z,13.40
2022-10-18T01:46:26.981Z,11.00
2022-10-18T01:49:00.267Z,15.10
2022-10-18T01:51:33.945Z,12.70
2022-10-18T01:54:06.318Z,9.40
2022-10-18T01:56:48.982Z,10.30
2022-10-18T01:59:48.105Z,14.40
2022-10-18T02:02:30.827Z,12.10
2022-10-18T02:05:12.425Z,10.80
2022-10-18T02:08:00.412Z,11.40
2022-10-18T02:10:51.017Z,10.10
2022-10-18T02:13:26.394Z,12.10
2022-10-18T02:16:11.399Z,13.60
2022-10-18T02:18:48.072Z,15.20
2022-10-18T02:21:22.379Z,14.10
2022-10-18T02:23:55.554Z,13.30
2022-10-18T02:26:28.301Z,12.90
2022-10-18T02:29:00.508Z,21.90
2022-10-18T02:31:37.465Z,13.50
2022-10-18T02:34:17.926Z,14.00
2022-10-18T02:39:24.649Z,17.60
2022-10-18T02:41:58.230Z,14.90
2022-10-18T02:44:30.784Z,13.80
2022-10-18T02:47:03.043Z,12.30
2022-10-18T02:49:35.381Z,11.70
2022-10-18T02:52:08.728Z,11.70
2022-10-18T02:54:42.108Z,9.80
2022-10-18T02:57:14.180Z,14.30
2022-10-18T02:59:46.481Z,13.10
2022-10-18T03:02:18.411Z,12.20
2022-10-18T03:04:50.454Z,9.70
2022-10-18T03:07:22.398Z,12.70
2022-10-18T03:09:54.666Z,13.60
2022-10-18T03:12:26.625Z,12.50
2022-10-18T03:14:58.681Z,13.90
2022-10-18T03:17:31.092Z,13.10
2022-10-18T03:20:03.300Z,12.00
2022-10-18T03:22:35.475Z,13.90
2022-10-18T03:25:08.112Z,14.80
2022-10-18T03:27:40.166Z,14.30
2022-10-18T03:30:14.141Z,11.30
2022-10-18T03:32:46.029Z,12.30
2022-10-18T03:35:18.349Z,36.80
2022-10-18T03:41:03.527Z,17.30
2022-10-18T03:43:35.436Z,11.70
2022-10-18T03:46:08.065Z,13.00
2022-10-18T03:48:39.974Z,13.20
2022-10-18T03:51:12.155Z,44.70
2022-10-18T03:53:44.166Z,341.00
2022-10-18T03:56:16.124Z,45.50
2022-10-18T03:58:48.318Z,18.90
2022-10-18T04:01:20.400Z,16.60
2022-10-18T04:03:52.609Z,12.80
2022-10-18T04:06:24.806Z,21.00
2022-10-18T04:08:57.444Z,14.20
2022-10-18T04:11:29.423Z,15.70
2022-10-18T04:14:01.458Z,17.20
2022-10-18T04:16:33.820Z,12.60
2022-10-18T04:19:05.739Z,12.20
2022-10-18T04:21:37.743Z,12.80
2022-10-18T04:24:10.133Z,12.10
2022-10-18T04:26:42.176Z,13.70
2022-10-18T04:29:14.354Z,13.10
2022-10-18T04:31:46.659Z,14.80
2022-10-18T04:34:18.629Z,10.90
2022-10-18T04:36:50.652Z,12.40
2022-10-18T04:39:23.208Z,9.90
2022-10-18T04:41:55.153Z,14.50
2022-10-18T04:44:27.138Z,10.10
2022-10-18T04:46:59.083Z,15.90
2022-10-18T04:49:31.190Z,12.10
2022-10-18T04:52:03.176Z,8.80
2022-10-18T04:54:35.216Z,13.50
2022-10-18T04:57:07.329Z,12.80
2022-10-18T04:59:39.199Z,9.20
2022-10-18T05:02:15.275Z,16.80
2022-10-18T05:04:47.173Z,13.30
2022-10-18T05:07:19.135Z,14.50
2022-10-18T05:09:51.136Z,10.60
2022-10-18T05:12:23.421Z,15.30
2022-10-18T05:14:56.811Z,13.20
2022-10-18T05:17:28.913Z,13.30
2022-10-18T05:20:00.949Z,12.30
2022-10-18T05:22:33.364Z,11.00
2022-10-18T05:25:06.040Z,11.90
2022-10-18T05:27:38.008Z,13.70
2022-10-18T05:30:45.188Z,17.80
2022-10-18T05:33:17.216Z,15.90
2022-10-18T05:35:49.165Z,13.50
2022-10-18T05:38:21.291Z,13.80
2022-10-18T05:40:53.370Z,10.80
2022-10-18T05:43:28.969Z,11.10
2022-10-18T05:46:01.042Z,13.60
2022-10-18T05:48:33.165Z,10.40
2022-10-18T05:51:05.212Z,13.10
2022-10-18T05:53:38.130Z,8.40
2022-10-18T05:56:14.255Z,12.80
2022-10-18T05:58:56.476Z,9.70
2022-10-18T06:01:28.448Z,11.00
2022-10-18T06:04:00.534Z,10.60
2022-10-18T06:06:34.104Z,9.00
2022-10-18T06:09:07.557Z,12.50
2022-10-18T06:11:39.790Z,9.90
2022-10-18T06:14:12.362Z,10.50
2022-10-18T06:16:44.257Z,14.20
2022-10-18T06:19:16.437Z,10.80
2022-10-18T06:21:48.389Z,11.10
2022-10-18T06:24:21.697Z,11.10
2022-10-18T06:26:53.829Z,15.30
2022-10-18T06:29:25.903Z,12.90
2022-10-18T06:31:58.090Z,17.60
2022-10-18T06:34:30.074Z,23.30
2022-10-18T06:37:02.776Z,19.30
2022-10-18T06:39:34.854Z,27.50
2022-10-18T06:42:06.929Z,13.00
2022-10-18T06:44:39.315Z,50.10
2022-10-18T06:47:11.714Z,12.40
2022-10-18T06:49:43.655Z,20.30
2022-10-18T06:52:17.784Z,10.40
2022-10-18T06:54:51.130Z,12.70
2022-10-18T06:57:23.356Z,12.20
2022-10-18T06:59:56.649Z,11.60
2022-10-18T07:02:28.700Z,11.20
2022-10-18T07:05:00.672Z,9.80
2022-10-18T07:07:36.303Z,13.30
2022-10-18T07:10:12.918Z,7.90
2022-10-18T07:12:47.952Z,10.50
2022-10-18T07:15:22.754Z,7.70
2022-10-18T07:17:54.880Z,8.10
2022-10-18T07:20:27.274Z,9.60
2022-10-18T07:23:00.005Z,12.80
2022-10-18T07:25:32.865Z,9.90
2022-10-18T07:28:04.976Z,14.60
2022-10-18T07:30:37.403Z,11.60
2022-10-18T07:33:09.533Z,7.90
2022-10-18T07:35:44.563Z,11.50
2022-10-18T07:38:16.675Z,12.60
2022-10-18T07:40:48.740Z,8.50
2022-10-18T07:43:23.032Z,7.80
2022-10-18T07:45:59.592Z,12.30
2022-10-18T07:48:32.037Z,9.10
2022-10-18T07:51:05.055Z,10.00
2022-10-18T07:53:37.364Z,6.80
2022-10-18T07:56:16.335Z,10.80
2022-10-18T07:58:52.513Z,12.10
2022-10-18T08:01:25.959Z,11.10
2022-10-18T08:04:03.223Z,9.00
2022-10-18T08:09:11.963Z,8.50
2022-10-18T08:11:44.004Z,6.60
2022-10-18T08:14:16.606Z,7.80
2022-10-18T08:16:48.640Z,9.20
2022-10-18T08:19:20.629Z,14.40
2022-10-18T08:21:52.722Z,9.10
2022-10-18T08:24:24.887Z,8.10
2022-10-18T08:26:57.030Z,11.40
2022-10-18T08:29:31.679Z,6.80
2022-10-18T08:32:41.700Z,6.30
2022-10-18T08:35:14.281Z,7.60
2022-10-18T08:37:46.704Z,6.30
2022-10-18T08:40:20.413Z,8.40
2022-10-18T08:43:04.057Z,8.60
2022-10-18T08:45:42.926Z,6.10
2022-10-18T08:48:24.733Z,9.00
2022-10-18T08:50:57.553Z,9.60
2022-10-18T08:53:37.604Z,7.70
2022-10-18T08:56:15.649Z,7.30
2022-10-18T08:58:49.768Z,6.30
2022-10-18T09:01:31.584Z,7.60
2022-10-18T09:04:28.430Z,6.60
2022-10-18T09:07:18.803Z,12.30
2022-10-18T09:14:08.404Z,6.40
2022-10-18T09:21:00.604Z,5.30
2022-10-18T09:23:44.244Z,7.80
2022-10-18T09:30:31.084Z,7.80
2022-10-18T09:33:12.685Z,8.30
2022-10-18T09:35:50.198Z,7.10
2022-10-18T09:38:27.703Z,8.40
2022-10-18T09:41:03.641Z,5.40
2022-10-18T09:51:44.137Z,9.50
2022-10-18T09:58:38.150Z,7.40
2022-10-18T10:01:12.078Z,6.20
2022-10-18T10:03:44.977Z,6.10
2022-10-18T10:06:31.661Z,6.50
2022-10-18T10:09:09.416Z,5.60
2022-10-18T10:15:36.957Z,9.10
2022-10-18T10:18:24.822Z,6.80
2022-10-18T10:21:09.436Z,6.10
2022-10-18T10:23:46.863Z,6.80
2022-10-18T10:26:26.279Z,8.20
2022-10-18T10:28:58.472Z,6.30
2022-10-18T10:31:32.571Z,8.60
2022-10-18T10:34:06.314Z,8.50
2022-10-18T10:36:50.196Z,7.30
2022-10-18T10:39:26.046Z,7.30
2022-10-18T10:42:05.886Z,6.50
2022-10-18T10:44:40.527Z,7.50
2022-10-18T10:47:27.831Z,7.30
2022-10-18T10:50:00.461Z,8.20
2022-10-18T10:52:32.925Z,11.70
2022-10-18T10:55:23.573Z,7.60
2022-10-18T10:57:58.987Z,6.70
2022-10-18T11:00:48.745Z,9.20
2022-10-18T11:03:29.085Z,11.20
2022-10-18T11:06:02.158Z,8.10
2022-10-18T11:08:39.456Z,7.60
2022-10-18T11:11:23.286Z,8.50
2022-10-18T11:14:25.685Z,7.80
2022-10-18T11:17:08.143Z,7.40
2022-10-18T11:19:56.948Z,9.40
2022-10-18T11:22:34.125Z,10.60
2022-10-18T11:25:07.876Z,8.50
2022-10-18T11:27:47.985Z,12.50
2022-10-18T11:30:42.196Z,8.40
2022-10-18T11:33:33.649Z,12.10
2022-10-18T11:39:04.651Z,10.80
2022-10-18T11:41:45.466Z,10.30
2022-10-18T11:44:31.235Z,9.90
2022-10-18T11:47:11.136Z,9.30
2022-10-18T11:50:08.361Z,10.70
2022-10-18T11:52:49.503Z,8.50
2022-10-18T11:55:47.640Z,11.60
2022-10-18T11:58:38.438Z,10.50
2022-10-18T12:01:24.747Z,11.40
2022-10-18T12:04:09.016Z,8.50
2022-10-18T12:06:44.230Z,9.30
2022-10-18T12:09:29.054Z,10.10
2022-10-18T12:12:08.545Z,9.20
2022-10-18T12:14:46.619Z,11.50
2022-10-18T12:17:44.085Z,10.20
2022-10-18T12:20:24.807Z,8.40
2022-10-18T12:26:24.858Z,8.80
2022-10-18T12:29:16.566Z,8.70
2022-10-18T12:31:52.299Z,11.00
2022-10-18T12:43:03.504Z,10.10
2022-10-18T12:45:51.606Z,8.60
2022-10-18T12:48:38.841Z,8.30
2022-10-18T12:51:18.726Z,8.80
2022-10-18T12:53:56.261Z,8.20
2022-10-18T12:56:43.478Z,9.80
2022-10-18T12:59:43.615Z,9.10
2022-10-18T13:02:35.071Z,7.80
2022-10-18T13:06:06.593Z,11.90
2022-10-18T13:08:51.066Z,11.80
2022-10-18T13:11:36.123Z,8.60
2022-10-18T13:14:44.039Z,7.90
2022-10-18T13:17:33.880Z,9.20
2022-10-18T13:20:26.050Z,10.10
2022-10-18T13:23:09.354Z,7.90
2022-10-18T13:25:55.549Z,8.20
2022-10-18T13:28:38.891Z,10.40
2022-10-18T13:31:21.227Z,7.90
2022-10-18T13:33:53.541Z,8.40
2022-10-18T13:36:30.034Z,9.80
2022-10-18T13:39:07.289Z,8.40
2022-10-18T13:42:09.739Z,7.90
2022-10-18T13:44:42.551Z,9.70
2022-10-18T13:47:16.377Z,10.40
2022-10-18T13:50:26.086Z,11.00
2022-10-18T13:53:32.715Z,9.50
2022-10-18T13:56:31.461Z,11.50
2022-10-18T13:59:22.774Z,10.40
2022-10-18T14:02:15.089Z,12.20
2022-10-18T14:05:23.681Z,10.90
2022-10-18T14:08:06.934Z,11.30
2022-10-18T14:11:01.703Z,17.30
2022-10-18T14:13:46.952Z,12.00
2022-10-18T14:16:32.383Z,14.80
2022-10-18T14:19:30.604Z,11.00
2022-10-18T14:22:11.472Z,12.60
2022-10-18T14:24:47.926Z,12.50
2022-10-18T14:27:23.768Z,19.30
2022-10-18T14:30:14.970Z,14.30
2022-10-18T14:32:49.789Z,13.30
2022-10-18T14:36:15.798Z,17.50
2022-10-18T14:38:56.376Z,13.40
2022-10-18T14:41:30.042Z,14.20
2022-10-18T14:44:21.370Z,18.70
2022-10-18T14:46:59.712Z,11.50
2022-10-18T14:49:32.424Z,12.40
2022-10-18T14:52:04.511Z,87.20
2022-10-18T14:54:39.533Z,17.30
2022-10-18T14:57:44.661Z,15.60
2022-10-18T15:00:25.831Z,16.50
2022-10-18T15:02:57.941Z,15.40
2022-10-18T15:05:30.196Z,13.60
2022-10-18T15:08:02.673Z,13.80
2022-10-18T15:10:36.468Z,14.60
2022-10-18T15:13:10.265Z,17.00
2022-10-18T15:15:44.936Z,14.50
2022-10-18T15:18:24.075Z,15.30
2022-10-18T15:21:20.475Z,15.80
2022-10-18T15:23:53.058Z,20.40
2022-10-18T15:26:29.810Z,15.40
2022-10-18T15:29:04.475Z,16.20
2022-10-18T15:31:42.965Z,20.30
2022-10-18T15:34:24.028Z,24.50
2022-10-18T15:36:57.914Z,16.90
2022-10-18T15:39:31.795Z,16.70
2022-10-18T15:42:05.113Z,22.50
2022-10-18T15:44:48.075Z,18.60
2022-10-18T15:47:25.146Z,17.40
2022-10-18T15:49:58.652Z,13.00
2022-10-18T15:52:42.568Z,14.70
2022-10-18T15:55:48.927Z,16.30
2022-10-18T15:58:24.793Z,17.40
2022-10-18T16:01:00.203Z,16.70
2022-10-18T16:03:36.954Z,14.40
2022-10-18T16:06:13.438Z,18.10
2022-10-18T16:08:50.620Z,16.20
2022-10-18T16:11:24.709Z,16.50
2022-10-18T16:13:59.612Z,15.00
2022-10-18T16:16:32.926Z,20.00
2022-10-18T16:19:05.574Z,24.20
2022-10-18T16:21:39.676Z,17.10
2022-10-18T16:24:12.031Z,18.80
2022-10-18T16:26:44.274Z,19.90
2022-10-18T16:29:19.547Z,17.30
2022-10-18T16:31:53.582Z,19.10
2022-10-18T16:34:27.648Z,18.90
2022-10-18T16:36:59.699Z,33.30
2022-10-18T16:39:34.910Z,27.80
2022-10-18T16:42:06.834Z,65.20
2022-10-18T16:44:38.942Z,403.50
2022-10-18T16:47:12.651Z,1570.80
2022-10-18T16:49:45.220Z,942.80
2022-10-18T16:55:30.950Z,135.40
2022-10-18T16:58:03.270Z,135.10
2022-10-18T17:00:35.908Z,56.70
2022-10-18T17:03:08.540Z,81.60
2022-10-18T17:05:40.550Z,37.20
2022-10-18T17:08:21.306Z,77.40
2022-10-18T17:10:55.338Z,19.30
2022-10-18T17:13:27.792Z,24.60
2022-10-18T17:16:04.887Z,19.50
2022-10-18T17:18:37.276Z,22.10
2022-10-18T17:21:09.257Z,23.50
2022-10-18T17:23:41.204Z,21.50
2022-10-18T17:26:29.328Z,27.80
2022-10-18T17:29:05.363Z,33.90
2022-10-18T17:31:37.632Z,30.90
2022-10-18T17:34:10.228Z,37.20
2022-10-18T17:36:42.240Z,32.00
2022-10-18T17:39:14.356Z,30.30
2022-10-18T17:41:46.330Z,35.20
2022-10-18T17:44:18.624Z,27.40
2022-10-18T17:46:54.079Z,24.00
2022-10-18T17:49:26.427Z,27.20
2022-10-18T17:52:00.238Z,17.60
2022-10-18T17:54:34.054Z,19.90
2022-10-18T17:57:06.084Z,24.80
2022-10-18T17:59:38.175Z,22.30
2022-10-18T18:02:10.477Z,20.20
2022-10-18T18:04:42.529Z,19.90
2022-10-18T18:07:14.472Z,23.90
2022-10-18T18:09:46.404Z,11.40
2022-10-18T18:12:18.683Z,19.80
2022-10-18T18:14:50.994Z,10.90
2022-10-18T18:21:59.448Z,6.00
2022-10-18T18:29:25.180Z,4.00
2022-10-18T18:31:57.246Z,5.40
2022-10-18T18:35:12.911Z,4.30
2022-10-18T18:37:45.043Z,5.10
2022-10-18T18:40:17.154Z,4.90
2022-10-18T18:46:10.289Z,3.10
2022-10-18T18:49:09.059Z,4.60
2022-10-18T18:51:41.663Z,8.00
2022-10-18T18:54:50.172Z,8.40
2022-10-18T19:01:48.816Z,6.20
2022-10-18T19:04:29.061Z,3.20
2022-10-18T19:07:01.122Z,6.50
2022-10-18T19:09:38.011Z,5.20
2022-10-18T19:12:09.932Z,15.90
2022-10-18T19:14:41.851Z,6.90
2022-10-18T19:17:13.909Z,3.70
2022-10-18T19:19:46.417Z,5.70
2022-10-18T19:22:20.370Z,6.60
2022-10-18T19:24:52.354Z,5.70
2022-10-18T19:27:24.341Z,6.70
2022-10-18T19:29:56.920Z,11.50
2022-10-18T19:38:21.060Z,8.80
2022-10-18T19:40:53.885Z,10.50
2022-10-18T19:43:26.187Z,7.10
2022-10-18T19:46:02.475Z,5.10
2022-10-18T19:48:37.246Z,9.80
2022-10-18T19:51:10.952Z,8.30
2022-10-18T19:53:44.215Z,7.50
2022-10-18T19:56:20.666Z,6.60
2022-10-18T19:58:53.294Z,7.00
2022-10-18T20:01:26.853Z,7.80
2022-10-18T20:03:59.659Z,7.10
2022-10-18T20:06:31.720Z,16.70
2022-10-18T20:09:04.248Z,14.80
2022-10-18T20:11:37.378Z,14.70
2022-10-18T20:14:10.929Z,8.40
2022-10-18T20:16:43.154Z,9.70
2022-10-18T20:19:16.152Z,6.60
2022-10-18T20:21:49.571Z,7.00
2022-10-18T20:24:21.600Z,6.00
2022-10-18T20:29:30.824Z,7.60
2022-10-18T20:32:02.775Z,10.20
2022-10-18T20:34:35.133Z,14.40
2022-10-18T20:37:07.213Z,13.10
2022-10-18T20:39:40.587Z,10.00
2022-10-18T20:42:12.512Z,12.00
2022-10-18T20:44:44.471Z,7.20
2022-10-18T20:47:16.484Z,10.40
2022-10-18T20:49:50.722Z,7.00
2022-10-18T20:52:22.784Z,8.20
2022-10-18T20:54:55.150Z,9.40
2022-10-18T20:57:27.056Z,7.90
2022-10-18T20:59:59.030Z,9.90
2022-10-18T21:02:31.110Z,7.30
2022-10-18T21:05:03.107Z,6.10
2022-10-18T21:07:35.619Z,9.80
2022-10-18T21:10:09.676Z,13.80
2022-10-18T21:12:41.680Z,10.20
2022-10-18T21:15:14.113Z,10.10
2022-10-18T21:17:50.681Z,6.50
2022-10-18T21:20:22.695Z,4.80
2022-10-18T21:22:55.000Z,6.30
2022-10-18T21:25:27.020Z,8.20
2022-10-18T21:27:59.159Z,5.30
2022-10-18T21:30:31.226Z,7.60
2022-10-18T21:33:03.297Z,6.80
2022-10-18T21:35:39.521Z,7.50
2022-10-18T21:38:13.879Z,8.10
2022-10-18T21:40:45.869Z,7.20
2022-10-18T21:43:17.914Z,7.00
2022-10-18T21:45:49.899Z,6.40
2022-10-18T21:51:05.075Z,5.40
2022-10-18T21:53:37.413Z,5.20
2022-10-18T21:56:11.591Z,8.60
2022-10-18T21:58:44.415Z,8.20
2022-10-18T22:01:19.012Z,8.00
2022-10-18T22:03:53.392Z,15.10
2022-10-18T22:06:26.338Z,7.60
2022-10-18T22:09:00.954Z,9.50
2022-10-18T22:11:36.274Z,6.50
2022-10-18T22:14:08.604Z,6.40
2022-10-18T22:16:40.983Z,6.40
2022-10-18T22:19:15.019Z,9.10
2022-10-18T22:21:47.386Z,8.30
2022-10-18T22:24:19.440Z,10.00
2022-10-18T22:26:51.465Z,7.00
2022-10-18T22:29:26.215Z,7.60
2022-10-18T22:31:58.811Z,8.80
2022-10-18T22:34:30.807Z,8.30
2022-10-18T22:37:02.802Z,8.70
2022-10-18T22:39:34.939Z,10.50
2022-10-18T22:42:07.007Z,9.90
2022-10-18T22:44:38.944Z,9.50
2022-10-18T22:47:10.961Z,11.00
2022-10-18T22:49:42.959Z,11.90
2022-10-18T22:52:15.183Z,10.40
2022-10-18T22:54:47.142Z,10.60
2022-10-18T22:57:21.257Z,14.60
2022-10-18T22:59:53.300Z,9.20
2022-10-18T23:02:25.478Z,9.70
2022-10-18T23:04:57.565Z,10.10
2022-10-18T23:07:29.741Z,11.10
2022-10-18T23:10:01.919Z,13.50
2022-10-18T23:12:34.310Z,12.20
2022-10-18T23:15:07.660Z,11.20
2022-10-18T23:17:40.033Z,10.50
2022-10-18T23:20:13.250Z,14.40
2022-10-18T23:22:45.283Z,10.80
2022-10-18T23:25:17.495Z,9.20
2022-10-18T23:27:49.553Z,6.80
2022-10-18T23:30:21.923Z,6.50
2022-10-18T23:32:53.978Z,6.90
2022-10-18T23:35:26.073Z,6.40
2022-10-18T23:37:58.181Z,7.20
2022-10-18T23:40:30.371Z,9.10
2022-10-18T23:43:02.656Z,7.10
2022-10-18T23:45:34.966Z,8.10
2022-10-18T23:48:07.478Z,9.10
2022-10-18T23:50:39.554Z,10.90
2022-10-18T23:53:11.739Z,12.30
2022-10-18T23:55:53.761Z,10.90
2022-10-18T23:58:27.059Z,8.50
